sensor_id;sensor_type;location;lat;lon;timestamp;pressure;altitude;pressure_sealevel;temperature;humidity
79131;BME280;72396;45.194;9.142;2024-01-10T00:00:13;101776.00;;;7.63;52.18
79131;BME280;72396;45.194;9.142;2024-01-10T00:02:38;101762.81;;;7.70;52.47
79131;BME280;72396;45.194;9.142;2024-01-10T00:05:04;101759.34;;;7.64;52.33
79131;BME280;72396;45.194;9.142;2024-01-10T00:07:30;101770.72;;;7.73;52.23
79131;BME280;72396;45.194;9.142;2024-01-10T00:09:55;101764.63;;;7.60;52.68
79131;BME280;72396;45.194;9.142;2024-01-10T00:12:22;101753.25;;;7.62;52.18
79131;BME280;72396;45.194;9.142;2024-01-10T00:14:47;101773.34;;;7.73;51.58
79131;BME280;72396;45.194;9.142;2024-01-10T00:17:13;101769.91;;;7.52;52.85
79131;BME280;72396;45.194;9.142;2024-01-10T00:19:38;101749.66;;;7.79;52.70
79131;BME280;72396;45.194;9.142;2024-01-10T00:22:04;101759.25;;;7.89;52.15
79131;BME280;72396;45.194;9.142;2024-01-10T00:24:29;101756.63;;;7.86;51.77
79131;BME280;72396;45.194;9.142;2024-01-10T00:26:54;101765.38;;;7.85;52.07
79131;BME280;72396;45.194;9.142;2024-01-10T00:29:20;101763.69;;;7.75;52.14
79131;BME280;72396;45.194;9.142;2024-01-10T00:31:45;101765.44;;;7.70;52.22
79131;BME280;72396;45.194;9.142;2024-01-10T00:34:11;101761.06;;;7.75;52.03
79131;BME280;72396;45.194;9.142;2024-01-10T00:36:36;101770.66;;;7.79;52.71
79131;BME280;72396;45.194;9.142;2024-01-10T00:39:01;101752.38;;;7.59;52.60
79131;BME280;72396;45.194;9.142;2024-01-10T00:41:27;101766.38;;;7.58;52.80
79131;BME280;72396;45.194;9.142;2024-01-10T00:43:52;101765.47;;;7.71;52.22
79131;BME280;72396;45.194;9.142;2024-01-10T00:46:18;101749.72;;;7.68;52.33
79131;BME280;72396;45.194;9.142;2024-01-10T00:48:43;101774.19;;;7.75;52.31
79131;BME280;72396;45.194;9.142;2024-01-10T00:51:09;101747.06;;;7.71;52.41
79131;BME280;72396;45.194;9.142;2024-01-10T00:53:35;101769.84;;;7.74;52.88
79131;BME280;72396;45.194;9.142;2024-01-10T00:56:00;101770.66;;;7.82;52.00
79131;BME280;72396;45.194;9.142;2024-01-10T00:58:26;101779.38;;;7.87;52.13
79131;BME280;72396;45.194;9.142;2024-01-10T01:00:51;101770.75;;;7.56;52.87
79131;BME280;72396;45.194;9.142;2024-01-10T01:03:16;101780.31;;;7.71;52.65
79131;BME280;72396;45.194;9.142;2024-01-10T01:05:42;101770.72;;;7.73;52.50
79131;BME280;72396;45.194;9.142;2024-01-10T01:08:07;101784.75;;;7.62;51.86
79131;BME280;72396;45.194;9.142;2024-01-10T01:10:33;101787.38;;;7.53;52.31
79131;BME280;72396;45.194;9.142;2024-01-10T01:12:59;101780.44;;;7.47;52.03
79131;BME280;72396;45.194;9.142;2024-01-10T01:15:24;101783.88;;;7.59;51.65
79131;BME280;72396;45.194;9.142;2024-01-10T01:17:50;101783.84;;;7.68;51.49
79131;BME280;72396;45.194;9.142;2024-01-10T01:20:15;101778.63;;;7.59;51.34
79131;BME280;72396;45.194;9.142;2024-01-10T01:22:40;101786.50;;;7.63;51.79
79131;BME280;72396;45.194;9.142;2024-01-10T01:25:06;101786.47;;;7.68;51.48
79131;BME280;72396;45.194;9.142;2024-01-10T01:27:31;101781.28;;;7.51;51.93
79131;BME280;72396;45.194;9.142;2024-01-10T01:29:57;101785.66;;;7.49;51.75
79131;BME280;72396;45.194;9.142;2024-01-10T01:32:22;101767.38;;;7.18;51.93
79131;BME280;72396;45.194;9.142;2024-01-10T01:34:48;101777.81;;;7.47;51.38
79131;BME280;72396;45.194;9.142;2024-01-10T01:37:13;101783.03;;;7.49;50.87
79131;BME280;72396;45.194;9.142;2024-01-10T01:39:38;101789.22;;;7.28;50.55
79131;BME280;72396;45.194;9.142;2024-01-10T01:42:04;101780.44;;;7.43;50.13
79131;BME280;72396;45.194;9.142;2024-01-10T01:44:30;101782.16;;;7.56;50.35
79131;BME280;72396;45.194;9.142;2024-01-10T01:46:57;101788.28;;;7.53;49.59
79131;BME280;72396;45.194;9.142;2024-01-10T01:49:22;101788.34;;;7.27;49.32
79131;BME280;72396;45.194;9.142;2024-01-10T01:51:49;101781.28;;;7.48;49.60
79131;BME280;72396;45.194;9.142;2024-01-10T01:54:15;101790.06;;;7.44;49.29
79131;BME280;72396;45.194;9.142;2024-01-10T01:56:42;101796.22;;;7.32;48.77
79131;BME280;72396;45.194;9.142;2024-01-10T01:59:09;101787.44;;;7.34;49.43
79131;BME280;72396;45.194;9.142;2024-01-10T02:01:35;101797.06;;;7.42;48.91
79131;BME280;72396;45.194;9.142;2024-01-10T02:04:01;101791.00;;;7.11;49.71
79131;BME280;72396;45.194;9.142;2024-01-10T02:06:28;101798.84;;;7.25;49.22
79131;BME280;72396;45.194;9.142;2024-01-10T02:08:54;101788.34;;;7.30;49.44
79131;BME280;72396;45.194;9.142;2024-01-10T02:11:21;101797.13;;;6.98;49.99
79131;BME280;72396;45.194;9.142;2024-01-10T02:13:48;101788.38;;;6.99;49.64
79131;BME280;72396;45.194;9.142;2024-01-10T02:16:13;101795.38;;;7.16;49.74
79131;BME280;72396;45.194;9.142;2024-01-10T02:18:39;101784.88;;;7.14;50.12
79131;BME280;72396;45.194;9.142;2024-01-10T02:21:04;101788.34;;;7.27;49.90
79131;BME280;72396;45.194;9.142;2024-01-10T02:23:29;101798.84;;;7.39;49.05
79131;BME280;72396;45.194;9.142;2024-01-10T02:25:55;101803.22;;;7.27;49.92
79131;BME280;72396;45.194;9.142;2024-01-10T02:28:20;101805.84;;;7.31;49.18
79131;BME280;72396;45.194;9.142;2024-01-10T02:30:48;101801.50;;;7.15;49.51
79131;BME280;72396;45.194;9.142;2024-01-10T02:33:14;101782.25;;;7.22;50.12
79131;BME280;72396;45.194;9.142;2024-01-10T02:35:40;101788.38;;;7.07;50.15
79131;BME280;72396;45.194;9.142;2024-01-10T02:38:05;101790.97;;;7.18;50.06
79131;BME280;72396;45.194;9.142;2024-01-10T02:40:31;101793.59;;;7.27;49.54
79131;BME280;72396;45.194;9.142;2024-01-10T02:42:56;101791.84;;;7.29;50.09
79131;BME280;72396;45.194;9.142;2024-01-10T02:45:21;101790.09;;;7.36;49.98
79131;BME280;72396;45.194;9.142;2024-01-10T02:47:47;101798.03;;;7.02;50.70
79131;BME280;72396;45.194;9.142;2024-01-10T02:50:12;101796.22;;;7.22;50.55
79131;BME280;72396;45.194;9.142;2024-01-10T02:52:38;101791.84;;;7.20;50.90
79131;BME280;72396;45.194;9.142;2024-01-10T02:55:03;101788.34;;;7.22;50.26
79131;BME280;72396;45.194;9.142;2024-01-10T02:57:29;101793.63;;;7.11;50.23
79131;BME280;72396;45.194;9.142;2024-01-10T02:59:54;101784.88;;;7.03;50.74
79131;BME280;72396;45.194;9.142;2024-01-10T03:02:19;101791.88;;;6.86;50.79
79131;BME280;72396;45.194;9.142;2024-01-10T03:04:45;101790.16;;;6.91;50.29
79131;BME280;72396;45.194;9.142;2024-01-10T03:07:10;101788.41;;;6.85;51.17
79131;BME280;72396;45.194;9.142;2024-01-10T03:09:36;101786.66;;;6.95;50.48
79131;BME280;72396;45.194;9.142;2024-01-10T03:12:01;101782.28;;;6.85;51.42
79131;BME280;72396;45.194;9.142;2024-01-10T03:14:26;101780.53;;;6.85;51.49
79131;BME280;72396;45.194;9.142;2024-01-10T03:16:52;101777.03;;;7.00;50.58
79131;BME280;72396;45.194;9.142;2024-01-10T03:19:18;101777.91;;;6.97;50.74
79131;BME280;72396;45.194;9.142;2024-01-10T03:21:43;101749.94;;;6.98;50.80
79131;BME280;72396;45.194;9.142;2024-01-10T03:24:09;101769.16;;;6.97;51.01
79131;BME280;72396;45.194;9.142;2024-01-10T03:26:34;101777.94;;;6.77;51.41
79131;BME280;72396;45.194;9.142;2024-01-10T03:28:59;101772.69;;;6.90;50.74
79131;BME280;72396;45.194;9.142;2024-01-10T03:31:27;101765.69;;;6.70;50.98
79131;BME280;72396;45.194;9.142;2024-01-10T03:33:53;101779.66;;;6.89;50.80
79131;BME280;72396;45.194;9.142;2024-01-10T03:36:18;101779.66;;;6.81;50.21
79131;BME280;72396;45.194;9.142;2024-01-10T03:38:44;101784.91;;;6.63;50.65
79131;BME280;72396;45.194;9.142;2024-01-10T03:41:17;101786.69;;;6.89;50.52
79131;BME280;72396;45.194;9.142;2024-01-10T03:43:43;101782.28;;;6.81;49.91
79131;BME280;72396;45.194;9.142;2024-01-10T03:46:12;101774.41;;;6.53;50.07
79131;BME280;72396;45.194;9.142;2024-01-10T03:48:37;101780.53;;;6.49;50.38
79131;BME280;72396;45.194;9.142;2024-01-10T03:51:05;101789.25;;;6.51;49.70
79131;BME280;72396;45.194;9.142;2024-01-10T03:53:31;101791.03;;;6.70;49.95
79131;BME280;72396;45.194;9.142;2024-01-10T03:55:56;101790.16;;;6.80;49.64
79131;BME280;72396;45.194;9.142;2024-01-10T03:58:24;101782.31;;;6.83;49.58
79131;BME280;72396;45.194;9.142;2024-01-10T04:00:49;101785.81;;;6.74;49.92
79131;BME280;72396;45.194;9.142;2024-01-10T04:03:14;101782.28;;;6.77;49.70
79131;BME280;72396;45.194;9.142;2024-01-10T04:05:41;101773.53;;;6.75;49.60
79131;BME280;72396;45.194;9.142;2024-01-10T04:08:06;101768.31;;;6.68;50.43
79131;BME280;72396;45.194;9.142;2024-01-10T04:10:32;101777.06;;;6.78;50.07
79131;BME280;72396;45.194;9.142;2024-01-10T04:12:57;101749.94;;;6.82;49.93
79131;BME280;72396;45.194;9.142;2024-01-10T04:15:23;101774.41;;;7.00;49.80
79131;BME280;72396;45.194;9.142;2024-01-10T04:17:48;101774.41;;;6.94;50.14
79131;BME280;72396;45.194;9.142;2024-01-10T04:20:13;101778.78;;;7.00;50.21
79131;BME280;72396;45.194;9.142;2024-01-10T04:22:39;101778.78;;;6.98;49.97
79131;BME280;72396;45.194;9.142;2024-01-10T04:25:06;101779.66;;;6.81;50.85
79131;BME280;72396;45.194;9.142;2024-01-10T04:27:32;101770.94;;;6.84;50.89
79131;BME280;72396;45.194;9.142;2024-01-10T04:29:57;101767.44;;;6.90;50.68
79131;BME280;72396;45.194;9.142;2024-01-10T04:32:23;101775.31;;;6.85;50.88
79131;BME280;72396;45.194;9.142;2024-01-10T04:34:48;101782.31;;;6.83;50.49
79131;BME280;72396;45.194;9.142;2024-01-10T04:37:13;101776.16;;;6.95;50.88
79131;BME280;72396;45.194;9.142;2024-01-10T04:39:39;101780.56;;;6.48;52.03
79131;BME280;72396;45.194;9.142;2024-01-10T04:42:05;101784.91;;;6.69;51.66
79131;BME280;72396;45.194;9.142;2024-01-10T04:44:31;101778.81;;;6.76;51.53
79131;BME280;72396;45.194;9.142;2024-01-10T04:46:56;101794.50;;;6.86;51.36
79131;BME280;72396;45.194;9.142;2024-01-10T04:49:22;101784.03;;;6.72;51.09
79131;BME280;72396;45.194;9.142;2024-01-10T04:51:48;101789.28;;;6.67;51.74
79131;BME280;72396;45.194;9.142;2024-01-10T04:54:13;101786.66;;;6.48;52.08
79131;BME280;72396;45.194;9.142;2024-01-10T04:56:38;101791.91;;;6.76;51.45
79131;BME280;72396;45.194;9.142;2024-01-10T04:59:04;101786.66;;;6.93;51.21
79131;BME280;72396;45.194;9.142;2024-01-10T05:01:30;101784.03;;;6.67;51.38
79131;BME280;72396;45.194;9.142;2024-01-10T05:03:56;101791.03;;;6.74;51.45
79131;BME280;72396;45.194;9.142;2024-01-10T05:06:21;101780.53;;;6.76;51.46
79131;BME280;72396;45.194;9.142;2024-01-10T05:08:47;101781.41;;;6.82;51.05
79131;BME280;72396;45.194;9.142;2024-01-10T05:11:14;101781.41;;;6.90;50.66
79131;BME280;72396;45.194;9.142;2024-01-10T05:13:40;101787.53;;;6.75;51.57
79131;BME280;72396;45.194;9.142;2024-01-10T05:16:05;101788.41;;;6.56;51.34
79131;BME280;72396;45.194;9.142;2024-01-10T05:18:31;101784.94;;;6.64;51.24
79131;BME280;72396;45.194;9.142;2024-01-10T05:20:56;101789.28;;;6.65;50.73
79131;BME280;72396;45.194;9.142;2024-01-10T05:23:22;101795.41;;;6.55;51.08
79131;BME280;72396;45.194;9.142;2024-01-10T05:25:48;101784.91;;;6.66;50.95
79131;BME280;72396;45.194;9.142;2024-01-10T05:28:13;101809.38;;;6.70;50.41
79131;BME280;72396;45.194;9.142;2024-01-10T05:30:39;101786.63;;;6.54;50.45
79131;BME280;72396;45.194;9.142;2024-01-10T05:33:04;101814.63;;;6.85;49.96
79131;BME280;72396;45.194;9.142;2024-01-10T05:35:29;101805.03;;;6.76;50.51
79131;BME280;72396;45.194;9.142;2024-01-10T05:37:55;101812.00;;;6.77;50.04
79131;BME280;72396;45.194;9.142;2024-01-10T05:40:20;101782.28;;;6.52;50.51
79131;BME280;72396;45.194;9.142;2024-01-10T05:42:46;101822.50;;;6.82;49.99
79131;BME280;72396;45.194;9.142;2024-01-10T05:45:11;101818.13;;;6.76;49.68
79131;BME280;72396;45.194;9.142;2024-01-10T05:47:36;101828.63;;;6.79;49.65
79131;BME280;72396;45.194;9.142;2024-01-10T05:50:02;101814.63;;;6.66;49.99
79131;BME280;72396;45.194;9.142;2024-01-10T05:52:31;101821.63;;;6.81;49.58
79131;BME280;72396;45.194;9.142;2024-01-10T05:54:57;101825.13;;;6.91;49.93
79131;BME280;72396;45.194;9.142;2024-01-10T05:57:22;101827.72;;;6.73;49.66
79131;BME280;72396;45.194;9.142;2024-01-10T05:59:48;101825.13;;;6.80;50.66
79131;BME280;72396;45.194;9.142;2024-01-10T06:02:13;101825.13;;;6.85;50.61
79131;BME280;72396;45.194;9.142;2024-01-10T06:04:41;101839.09;;;6.82;50.33
79131;BME280;72396;45.194;9.142;2024-01-10T06:07:07;101834.75;;;6.86;50.38
79131;BME280;72396;45.194;9.142;2024-01-10T06:09:32;101840.81;;;6.54;50.64
79131;BME280;72396;45.194;9.142;2024-01-10T06:11:57;101835.56;;;6.52;50.69
79131;BME280;72396;45.194;9.142;2024-01-10T06:14:23;101846.09;;;6.80;50.33
79131;BME280;72396;45.194;9.142;2024-01-10T06:16:48;101850.47;;;7.05;50.55
79131;BME280;72396;45.194;9.142;2024-01-10T06:19:13;101853.09;;;6.80;49.72
79131;BME280;72396;45.194;9.142;2024-01-10T06:21:39;101840.78;;;6.28;50.45
79131;BME280;72396;45.194;9.142;2024-01-10T06:24:04;101832.06;;;6.41;50.36
79131;BME280;72396;45.194;9.142;2024-01-10T06:26:30;101822.47;;;6.65;50.22
79131;BME280;72396;45.194;9.142;2024-01-10T06:28:55;101831.22;;;6.68;49.66
79131;BME280;72396;45.194;9.142;2024-01-10T06:31:21;101836.47;;;6.76;50.39
79131;BME280;72396;45.194;9.142;2024-01-10T06:33:46;101835.59;;;6.56;50.16
79131;BME280;72396;45.194;9.142;2024-01-10T06:36:12;101845.19;;;6.69;50.72
79131;BME280;72396;45.194;9.142;2024-01-10T06:38:38;101832.13;;;6.75;50.07
79131;BME280;72396;45.194;9.142;2024-01-10T06:41:08;101849.59;;;6.84;50.17
79131;BME280;72396;45.194;9.142;2024-01-10T06:43:34;101846.97;;;6.81;50.24
79131;BME280;72396;45.194;9.142;2024-01-10T06:45:59;101843.50;;;6.90;49.69
79131;BME280;72396;45.194;9.142;2024-01-10T06:48:25;101851.31;;;6.79;50.26
79131;BME280;72396;45.194;9.142;2024-01-10T06:50:50;101849.59;;;6.81;51.13
79131;BME280;72396;45.194;9.142;2024-01-10T06:53:15;101853.09;;;6.80;50.99
79131;BME280;72396;45.194;9.142;2024-01-10T06:55:41;101840.81;;;6.49;50.86
79131;BME280;72396;45.194;9.142;2024-01-10T06:58:06;101843.47;;;6.82;50.69
79131;BME280;72396;45.194;9.142;2024-01-10T07:00:31;101853.94;;;6.79;50.44
79131;BME280;72396;45.194;9.142;2024-01-10T07:02:57;101864.44;;;6.76;50.88
79131;BME280;72396;45.194;9.142;2024-01-10T07:05:25;101846.94;;;6.62;50.71
79131;BME280;72396;45.194;9.142;2024-01-10T07:07:51;101853.94;;;6.73;50.62
79131;BME280;72396;45.194;9.142;2024-01-10T07:10:16;101858.34;;;6.97;50.55
79131;BME280;72396;45.194;9.142;2024-01-10T07:12:42;101866.22;;;6.99;50.83
79131;BME280;72396;45.194;9.142;2024-01-10T07:15:07;101860.97;;;6.94;50.87
79131;BME280;72396;45.194;9.142;2024-01-10T07:17:33;101863.59;;;6.91;50.70
79131;BME280;72396;45.194;9.142;2024-01-10T07:19:58;101862.69;;;6.82;50.42
79131;BME280;72396;45.194;9.142;2024-01-10T07:22:24;101863.56;;;6.78;51.09
79131;BME280;72396;45.194;9.142;2024-01-10T07:24:49;101862.72;;;6.96;51.14
79131;BME280;72396;45.194;9.142;2024-01-10T07:27:15;101862.69;;;7.04;50.10
79131;BME280;72396;45.194;9.142;2024-01-10T07:29:40;101850.47;;;7.02;50.46
79131;BME280;72396;45.194;9.142;2024-01-10T07:32:07;101861.81;;;6.62;50.50
79131;BME280;72396;45.194;9.142;2024-01-10T07:34:37;101872.31;;;6.63;51.00
79131;BME280;72396;45.194;9.142;2024-01-10T07:37:02;101880.19;;;6.83;50.65
79131;BME280;72396;45.194;9.142;2024-01-10T07:39:28;101869.69;;;7.07;50.96
79131;BME280;72396;45.194;9.142;2024-01-10T07:41:54;101867.06;;;6.80;50.31
79131;BME280;72396;45.194;9.142;2024-01-10T07:44:19;101863.56;;;6.95;50.98
79131;BME280;72396;45.194;9.142;2024-01-10T07:46:45;101881.94;;;6.92;50.94
79131;BME280;72396;45.194;9.142;2024-01-10T07:49:10;101886.28;;;6.78;51.04
79131;BME280;72396;45.194;9.142;2024-01-10T07:51:35;101886.28;;;6.70;51.28
79131;BME280;72396;45.194;9.142;2024-01-10T07:54:01;101887.19;;;6.86;50.93
79131;BME280;72396;45.194;9.142;2024-01-10T07:56:26;101889.81;;;6.86;51.40
79131;BME280;72396;45.194;9.142;2024-01-10T07:58:51;101885.44;;;6.74;51.02
79131;BME280;72396;45.194;9.142;2024-01-10T08:01:17;101892.44;;;6.89;50.81
79131;BME280;72396;45.194;9.142;2024-01-10T08:03:43;101893.28;;;6.83;50.81
79131;BME280;72396;45.194;9.142;2024-01-10T08:06:08;101882.81;;;6.74;50.56
79131;BME280;72396;45.194;9.142;2024-01-10T08:08:35;101899.41;;;6.78;50.83
79131;BME280;72396;45.194;9.142;2024-01-10T08:11:01;101899.44;;;7.00;50.64
79131;BME280;72396;45.194;9.142;2024-01-10T08:13:27;101902.91;;;7.00;50.77
79131;BME280;72396;45.194;9.142;2024-01-10T08:15:52;101909.06;;;7.04;50.37
79131;BME280;72396;45.194;9.142;2024-01-10T08:18:18;101901.19;;;6.96;50.12
79131;BME280;72396;45.194;9.142;2024-01-10T08:20:44;101901.19;;;6.97;49.73
79131;BME280;72396;45.194;9.142;2024-01-10T08:23:09;101910.78;;;6.97;50.78
79131;BME280;72396;45.194;9.142;2024-01-10T08:25:35;101911.69;;;6.97;50.81
79131;BME280;72396;45.194;9.142;2024-01-10T08:28:00;101914.22;;;6.68;50.38
79131;BME280;72396;45.194;9.142;2024-01-10T08:30:26;101916.91;;;6.82;50.33
79131;BME280;72396;45.194;9.142;2024-01-10T08:32:52;101917.78;;;7.01;49.77
79131;BME280;72396;45.194;9.142;2024-01-10T08:35:17;101923.88;;;6.67;50.14
79131;BME280;72396;45.194;9.142;2024-01-10T08:37:44;101925.66;;;6.95;50.02
79131;BME280;72396;45.194;9.142;2024-01-10T08:40:11;101933.53;;;7.07;49.81
79131;BME280;72396;45.194;9.142;2024-01-10T08:42:40;101923.91;;;7.00;49.63
79131;BME280;72396;45.194;9.142;2024-01-10T08:45:06;101926.53;;;7.03;49.61
79131;BME280;72396;45.194;9.142;2024-01-10T08:47:34;101935.28;;;6.97;50.07
79131;BME280;72396;45.194;9.142;2024-01-10T08:50:01;101928.25;;;6.82;50.19
79131;BME280;72396;45.194;9.142;2024-01-10T08:52:27;101915.19;;;6.96;50.05
79131;BME280;72396;45.194;9.142;2024-01-10T08:54:52;101918.66;;;7.05;49.47
79131;BME280;72396;45.194;9.142;2024-01-10T08:57:18;101941.41;;;7.15;49.58
79131;BME280;72396;45.194;9.142;2024-01-10T08:59:43;101937.03;;;6.97;50.28
79131;BME280;72396;45.194;9.142;2024-01-10T09:02:09;101941.38;;;7.01;49.66
79131;BME280;72396;45.194;9.142;2024-01-10T09:04:35;101945.78;;;7.11;50.14
79131;BME280;72396;45.194;9.142;2024-01-10T09:07:01;101946.69;;;7.23;49.99
79131;BME280;72396;45.194;9.142;2024-01-10T09:09:26;101956.25;;;7.21;49.92
79131;BME280;72396;45.194;9.142;2024-01-10T09:11:52;101956.25;;;7.21;49.94
79131;BME280;72396;45.194;9.142;2024-01-10T09:14:17;101956.25;;;7.10;49.55
79131;BME280;72396;45.194;9.142;2024-01-10T09:16:42;101959.78;;;7.14;50.07
79131;BME280;72396;45.194;9.142;2024-01-10T09:19:08;101954.53;;;7.20;49.70
79131;BME280;72396;45.194;9.142;2024-01-10T09:21:34;101962.41;;;7.18;49.43
79131;BME280;72396;45.194;9.142;2024-01-10T09:24:00;101952.78;;;7.05;49.50
79131;BME280;72396;45.194;9.142;2024-01-10T09:26:25;101967.63;;;7.06;50.01
79131;BME280;72396;45.194;9.142;2024-01-10T09:28:50;101969.41;;;7.13;49.89
79131;BME280;72396;45.194;9.142;2024-01-10T09:31:16;101969.38;;;7.02;49.79
79131;BME280;72396;45.194;9.142;2024-01-10T09:33:41;101958.88;;;6.97;50.11
79131;BME280;72396;45.194;9.142;2024-01-10T09:36:08;101956.25;;;6.99;50.80
79131;BME280;72396;45.194;9.142;2024-01-10T09:38:36;101973.78;;;7.20;49.95
79131;BME280;72396;45.194;9.142;2024-01-10T09:41:05;101981.66;;;7.34;50.06
79131;BME280;72396;45.194;9.142;2024-01-10T09:43:31;101958.88;;;7.02;50.07
79131;BME280;72396;45.194;9.142;2024-01-10T09:45:58;101974.66;;;7.29;49.65
79131;BME280;72396;45.194;9.142;2024-01-10T09:48:25;101975.53;;;7.21;49.91
79131;BME280;72396;45.194;9.142;2024-01-10T09:50:51;101972.00;;;7.21;49.34
79131;BME280;72396;45.194;9.142;2024-01-10T09:53:22;101984.28;;;7.25;49.73
79131;BME280;72396;45.194;9.142;2024-01-10T09:55:49;101962.41;;;7.24;49.54
79131;BME280;72396;45.194;9.142;2024-01-10T09:58:15;101962.41;;;7.26;49.73
79131;BME280;72396;45.194;9.142;2024-01-10T10:00:40;101963.28;;;7.37;49.30
79131;BME280;72396;45.194;9.142;2024-01-10T10:03:09;101968.53;;;7.22;49.86
79131;BME280;72396;45.194;9.142;2024-01-10T10:05:38;101983.41;;;7.18;50.59
79131;BME280;72396;45.194;9.142;2024-01-10T10:08:06;101986.91;;;7.30;50.58
79131;BME280;72396;45.194;9.142;2024-01-10T10:10:32;101987.78;;;7.46;49.99
79131;BME280;72396;45.194;9.142;2024-01-10T10:12:58;101968.53;;;7.50;49.67
79131;BME280;72396;45.194;9.142;2024-01-10T10:15:24;101981.66;;;7.67;49.92
79131;BME280;72396;45.194;9.142;2024-01-10T10:17:52;101978.16;;;7.57;49.70
79131;BME280;72396;45.194;9.142;2024-01-10T10:20:26;101984.28;;;7.62;49.78
79131;BME280;72396;45.194;9.142;2024-01-10T10:23:07;101980.81;;;7.38;50.30
79131;BME280;72396;45.194;9.142;2024-01-10T10:25:36;101981.66;;;7.64;50.59
79131;BME280;72396;45.194;9.142;2024-01-10T10:28:04;101984.28;;;7.34;50.88
79131;BME280;72396;45.194;9.142;2024-01-10T10:30:31;101986.91;;;7.47;51.27
79131;BME280;72396;45.194;9.142;2024-01-10T10:32:57;101976.41;;;7.61;50.39
79131;BME280;72396;45.194;9.142;2024-01-10T10:35:23;101969.38;;;7.71;50.54
79131;BME280;72396;45.194;9.142;2024-01-10T10:37:49;101971.16;;;7.39;50.95
79131;BME280;72396;45.194;9.142;2024-01-10T10:40:16;101976.41;;;7.79;50.32
79131;BME280;72396;45.194;9.142;2024-01-10T10:42:44;101966.75;;;7.71;50.11
79131;BME280;72396;45.194;9.142;2024-01-10T10:45:18;101979.88;;;7.78;49.83
79131;BME280;72396;45.194;9.142;2024-01-10T10:47:46;101968.50;;;7.78;49.35
79131;BME280;72396;45.194;9.142;2024-01-10T10:50:24;101981.63;;;7.96;49.40
79131;BME280;72396;45.194;9.142;2024-01-10T10:52:50;101978.13;;;7.84;49.17
79131;BME280;72396;45.194;9.142;2024-01-10T10:55:19;101976.41;;;7.75;48.99
79131;BME280;72396;45.194;9.142;2024-01-10T10:57:45;101972.03;;;7.69;49.24
79131;BME280;72396;45.194;9.142;2024-01-10T11:00:13;101989.50;;;7.96;48.85
79131;BME280;72396;45.194;9.142;2024-01-10T11:02:41;101980.75;;;7.79;49.21
79131;BME280;72396;45.194;9.142;2024-01-10T11:05:08;101977.25;;;7.83;48.86
79131;BME280;72396;45.194;9.142;2024-01-10T11:07:38;101981.66;;;7.67;49.17
79131;BME280;72396;45.194;9.142;2024-01-10T11:10:07;101972.91;;;7.73;49.06
79131;BME280;72396;45.194;9.142;2024-01-10T11:21:22;101974.66;;;7.57;48.85
79131;BME280;72396;45.194;9.142;2024-01-10T11:23:54;101972.03;;;7.72;48.52
79131;BME280;72396;45.194;9.142;2024-01-10T11:26:21;101971.09;;;7.95;48.45
79131;BME280;72396;45.194;9.142;2024-01-10T11:28:47;101965.00;;;7.82;47.78
79131;BME280;72396;45.194;9.142;2024-01-10T11:31:13;101965.00;;;7.85;47.81
79131;BME280;72396;45.194;9.142;2024-01-10T11:33:40;101964.97;;;8.07;48.17
79131;BME280;72396;45.194;9.142;2024-01-10T11:36:09;101955.34;;;7.96;48.16
79131;BME280;72396;45.194;9.142;2024-01-10T11:38:48;101957.88;;;8.23;48.05
79131;BME280;72396;45.194;9.142;2024-01-10T11:41:20;101956.16;;;8.14;47.80
79131;BME280;72396;45.194;9.142;2024-01-10T11:46:49;101948.31;;;8.08;47.90
79131;BME280;72396;45.194;9.142;2024-01-10T11:49:18;101947.41;;;8.17;48.83
79131;BME280;72396;45.194;9.142;2024-01-10T11:51:45;101922.09;;;7.92;48.73
79131;BME280;72396;45.194;9.142;2024-01-10T11:54:10;101943.09;;;7.92;48.26
79131;BME280;72396;45.194;9.142;2024-01-10T11:56:40;101944.84;;;7.92;48.58
79131;BME280;72396;45.194;9.142;2024-01-10T11:59:10;101934.38;;;7.65;48.84
79131;BME280;72396;45.194;9.142;2024-01-10T12:01:40;101925.63;;;7.84;48.41
79131;BME280;72396;45.194;9.142;2024-01-10T12:04:06;101926.47;;;7.87;48.14
79131;BME280;72396;45.194;9.142;2024-01-10T12:06:34;101925.56;;;7.97;48.54
79131;BME280;72396;45.194;9.142;2024-01-10T12:08:59;101927.34;;;7.91;48.04
79131;BME280;72396;45.194;9.142;2024-01-10T12:11:29;101901.09;;;7.85;47.89
79131;BME280;72396;45.194;9.142;2024-01-10T12:13:54;101916.00;;;7.68;47.44
79131;BME280;72396;45.194;9.142;2024-01-10T12:16:23;101911.56;;;7.86;47.70
79131;BME280;72396;45.194;9.142;2024-01-10T12:18:48;101895.84;;;7.78;47.75
79131;BME280;72396;45.194;9.142;2024-01-10T12:21:13;101922.97;;;7.85;48.06
79131;BME280;72396;45.194;9.142;2024-01-10T12:23:39;101906.31;;;7.92;47.06
79131;BME280;72396;45.194;9.142;2024-01-10T12:26:10;101899.31;;;7.91;47.12
79131;BME280;72396;45.194;9.142;2024-01-10T12:28:39;101889.75;;;7.62;47.54
79131;BME280;72396;45.194;9.142;2024-01-10T12:31:04;101896.72;;;7.88;47.18
79131;BME280;72396;45.194;9.142;2024-01-10T12:33:32;101901.03;;;7.94;46.49
79131;BME280;72396;45.194;9.142;2024-01-10T12:36:07;101899.31;;;7.96;46.68
79131;BME280;72396;45.194;9.142;2024-01-10T12:38:35;101901.88;;;8.04;46.79
79131;BME280;72396;45.194;9.142;2024-01-10T12:41:01;101872.19;;;7.92;46.18
79131;BME280;72396;45.194;9.142;2024-01-10T12:43:27;101899.22;;;8.21;46.61
79131;BME280;72396;45.194;9.142;2024-01-10T12:46:11;101894.84;;;8.20;45.46
79131;BME280;72396;45.194;9.142;2024-01-10T12:48:41;101873.88;;;8.03;45.77
79131;BME280;72396;45.194;9.142;2024-01-10T12:51:07;101885.22;;;8.09;46.21
79131;BME280;72396;45.194;9.142;2024-01-10T12:53:41;101872.16;;;7.95;46.08
79131;BME280;72396;45.194;9.142;2024-01-10T12:56:09;101862.50;;;8.01;46.05
79131;BME280;72396;45.194;9.142;2024-01-10T12:58:37;101873.88;;;8.00;46.45
79131;BME280;72396;45.194;9.142;2024-01-10T13:01:03;101881.78;;;8.00;46.03
79131;BME280;72396;45.194;9.142;2024-01-10T13:03:31;101878.25;;;8.05;45.72
79131;BME280;72396;45.194;9.142;2024-01-10T13:05:57;101860.84;;;7.79;45.83